Terminal Aerodrome Forecast
Issued by NWS

Home | Current Version | Previous Version | Text Only | Print | Product List | Glossary On
Versions: 1 2 3 4 5 6 7 8 9 10 11 12 13 14 15
000
FTUS44 KLIX 192300 RRA
TAFGPT
TAF
KGPT 192340Z 2000/2024 01011KT 4SM -RA BR BKN007 OVC020
     FM200300 06009KT 3SM SHRA OVC015
     FM201000 05009KT P6SM OVC018
     FM201800 03009KT P6SM BKN030=

USA.gov is the U.S. government's official web portal to all federal, state and local government web resources and services.